sensor_id;sensor_type;location;lat;lon;timestamp;temperature;humidity
79187;SHT31;68762;51.980;5.646;2023-08-08T00:02:08;17.8;67.1
79187;SHT31;68762;51.980;5.646;2023-08-08T00:04:37;17.7;67.2
79187;SHT31;68762;51.980;5.646;2023-08-08T00:07:07;17.7;67.4
79187;SHT31;68762;51.980;5.646;2023-08-08T00:09:36;17.7;67.7
79187;SHT31;68762;51.980;5.646;2023-08-08T00:12:06;17.7;67.8
79187;SHT31;68762;51.980;5.646;2023-08-08T00:14:35;17.7;67.9
79187;SHT31;68762;51.980;5.646;2023-08-08T00:17:03;17.7;68.2
79187;SHT31;68762;51.980;5.646;2023-08-08T00:19:32;17.7;68.3
79187;SHT31;68762;51.980;5.646;2023-08-08T00:22:01;17.6;68.3
79187;SHT31;68762;51.980;5.646;2023-08-08T00:24:29;17.6;68.3
79187;SHT31;68762;51.980;5.646;2023-08-08T00:26:58;17.6;68.4
79187;SHT31;68762;51.980;5.646;2023-08-08T00:29:27;17.6;68.4
79187;SHT31;68762;51.980;5.646;2023-08-08T00:31:55;17.6;68.7
79187;SHT31;68762;51.980;5.646;2023-08-08T00:34:24;17.7;68.6
79187;SHT31;68762;51.980;5.646;2023-08-08T00:36:52;17.7;68.6
79187;SHT31;68762;51.980;5.646;2023-08-08T00:39:21;17.7;68.7
79187;SHT31;68762;51.980;5.646;2023-08-08T00:41:49;17.7;68.8
79187;SHT31;68762;51.980;5.646;2023-08-08T00:44:18;17.7;68.9
79187;SHT31;68762;51.980;5.646;2023-08-08T00:46:47;17.7;68.9
79187;SHT31;68762;51.980;5.646;2023-08-08T00:49:15;17.7;68.8
79187;SHT31;68762;51.980;5.646;2023-08-08T00:51:46;17.7;69.0
79187;SHT31;68762;51.980;5.646;2023-08-08T00:54:16;17.7;68.9
79187;SHT31;68762;51.980;5.646;2023-08-08T00:56:44;17.7;69.1
79187;SHT31;68762;51.980;5.646;2023-08-08T00:59:14;17.7;69.5
79187;SHT31;68762;51.980;5.646;2023-08-08T01:01:44;17.7;69.9
79187;SHT31;68762;51.980;5.646;2023-08-08T01:04:13;17.7;70.0
79187;SHT31;68762;51.980;5.646;2023-08-08T01:06:51;17.7;70.1
79187;SHT31;68762;51.980;5.646;2023-08-08T01:09:30;17.7;70.1
79187;SHT31;68762;51.980;5.646;2023-08-08T01:12:02;17.7;70.3
79187;SHT31;68762;51.980;5.646;2023-08-08T01:14:32;17.8;70.3
79187;SHT31;68762;51.980;5.646;2023-08-08T01:17:03;17.8;70.1
79187;SHT31;68762;51.980;5.646;2023-08-08T01:19:32;17.8;70.0
79187;SHT31;68762;51.980;5.646;2023-08-08T01:22:03;17.8;69.9
79187;SHT31;68762;51.980;5.646;2023-08-08T01:24:33;17.8;69.8
79187;SHT31;68762;51.980;5.646;2023-08-08T01:27:04;17.8;69.7
79187;SHT31;68762;51.980;5.646;2023-08-08T01:29:34;17.9;69.7
79187;SHT31;68762;51.980;5.646;2023-08-08T01:32:04;17.9;69.6
79187;SHT31;68762;51.980;5.646;2023-08-08T01:34:35;17.9;69.4
79187;SHT31;68762;51.980;5.646;2023-08-08T01:37:11;17.9;69.5
79187;SHT31;68762;51.980;5.646;2023-08-08T01:39:42;17.9;69.3
79187;SHT31;68762;51.980;5.646;2023-08-08T01:42:12;17.9;69.4
79187;SHT31;68762;51.980;5.646;2023-08-08T01:44:43;17.9;69.5
79187;SHT31;68762;51.980;5.646;2023-08-08T01:47:12;17.9;69.3
79187;SHT31;68762;51.980;5.646;2023-08-08T01:49:40;17.9;69.4
79187;SHT31;68762;51.980;5.646;2023-08-08T01:52:09;17.8;69.6
79187;SHT31;68762;51.980;5.646;2023-08-08T01:54:37;17.8;69.6
79187;SHT31;68762;51.980;5.646;2023-08-08T01:57:08;17.8;69.7
79187;SHT31;68762;51.980;5.646;2023-08-08T01:59:38;17.8;69.8
79187;SHT31;68762;51.980;5.646;2023-08-08T02:02:06;17.8;69.8
79187;SHT31;68762;51.980;5.646;2023-08-08T02:04:35;17.8;69.9
79187;SHT31;68762;51.980;5.646;2023-08-08T02:07:04;17.8;69.8
79187;SHT31;68762;51.980;5.646;2023-08-08T02:09:32;17.8;69.7
79187;SHT31;68762;51.980;5.646;2023-08-08T02:12:01;17.8;69.5
79187;SHT31;68762;51.980;5.646;2023-08-08T02:14:29;17.8;69.3
79187;SHT31;68762;51.980;5.646;2023-08-08T02:16:58;17.8;69.3
79187;SHT31;68762;51.980;5.646;2023-08-08T02:19:26;17.8;69.3
79187;SHT31;68762;51.980;5.646;2023-08-08T02:21:56;17.8;69.1
79187;SHT31;68762;51.980;5.646;2023-08-08T02:24:24;17.8;69.1
79187;SHT31;68762;51.980;5.646;2023-08-08T02:26:53;17.8;69.0
79187;SHT31;68762;51.980;5.646;2023-08-08T02:29:21;17.8;68.9
79187;SHT31;68762;51.980;5.646;2023-08-08T02:31:50;17.8;68.6
79187;SHT31;68762;51.980;5.646;2023-08-08T02:34:18;17.8;68.5
79187;SHT31;68762;51.980;5.646;2023-08-08T02:36:47;17.7;68.2
79187;SHT31;68762;51.980;5.646;2023-08-08T02:39:18;17.7;68.2
79187;SHT31;68762;51.980;5.646;2023-08-08T02:41:46;17.7;68.2
79187;SHT31;68762;51.980;5.646;2023-08-08T02:44:15;17.7;68.2
79187;SHT31;68762;51.980;5.646;2023-08-08T02:46:46;17.7;68.4
79187;SHT31;68762;51.980;5.646;2023-08-08T02:49:14;17.7;68.7
79187;SHT31;68762;51.980;5.646;2023-08-08T02:51:43;17.7;69.0
79187;SHT31;68762;51.980;5.646;2023-08-08T02:54:11;17.6;69.4
79187;SHT31;68762;51.980;5.646;2023-08-08T02:56:40;17.6;69.5
79187;SHT31;68762;51.980;5.646;2023-08-08T02:59:08;17.6;69.5
79187;SHT31;68762;51.980;5.646;2023-08-08T03:01:37;17.6;69.6
79187;SHT31;68762;51.980;5.646;2023-08-08T03:04:06;17.6;70.1
79187;SHT31;68762;51.980;5.646;2023-08-08T03:06:36;17.5;70.4
79187;SHT31;68762;51.980;5.646;2023-08-08T03:09:05;17.5;70.8
79187;SHT31;68762;51.980;5.646;2023-08-08T03:11:33;17.5;71.2
79187;SHT31;68762;51.980;5.646;2023-08-08T03:14:03;17.5;71.7
79187;SHT31;68762;51.980;5.646;2023-08-08T03:16:32;17.5;72.0
79187;SHT31;68762;51.980;5.646;2023-08-08T03:19:01;17.4;72.1
79187;SHT31;68762;51.980;5.646;2023-08-08T03:21:29;17.4;72.3
79187;SHT31;68762;51.980;5.646;2023-08-08T03:23:58;17.4;72.4
79187;SHT31;68762;51.980;5.646;2023-08-08T03:26:26;17.4;72.4
79187;SHT31;68762;51.980;5.646;2023-08-08T03:28:55;17.4;72.3
79187;SHT31;68762;51.980;5.646;2023-08-08T03:31:24;17.4;72.2
79187;SHT31;68762;51.980;5.646;2023-08-08T03:33:53;17.4;72.2
79187;SHT31;68762;51.980;5.646;2023-08-08T03:36:23;17.4;72.2
79187;SHT31;68762;51.980;5.646;2023-08-08T03:38:52;17.4;72.1
79187;SHT31;68762;51.980;5.646;2023-08-08T03:41:20;17.3;72.1
79187;SHT31;68762;51.980;5.646;2023-08-08T03:43:49;17.3;72.1
79187;SHT31;68762;51.980;5.646;2023-08-08T03:46:17;17.3;72.2
79187;SHT31;68762;51.980;5.646;2023-08-08T03:48:46;17.3;72.1
79187;SHT31;68762;51.980;5.646;2023-08-08T03:51:14;17.3;72.1
79187;SHT31;68762;51.980;5.646;2023-08-08T03:53:43;17.3;72.0
79187;SHT31;68762;51.980;5.646;2023-08-08T03:56:12;17.3;72.0
79187;SHT31;68762;51.980;5.646;2023-08-08T03:58:40;17.2;72.1
79187;SHT31;68762;51.980;5.646;2023-08-08T04:01:09;17.2;72.1
79187;SHT31;68762;51.980;5.646;2023-08-08T04:03:38;17.2;72.2
79187;SHT31;68762;51.980;5.646;2023-08-08T04:06:06;17.2;72.2
79187;SHT31;68762;51.980;5.646;2023-08-08T04:08:35;17.2;72.4
79187;SHT31;68762;51.980;5.646;2023-08-08T04:11:03;17.2;72.6
79187;SHT31;68762;51.980;5.646;2023-08-08T04:13:32;17.2;72.7
79187;SHT31;68762;51.980;5.646;2023-08-08T04:16:01;17.2;72.8
79187;SHT31;68762;51.980;5.646;2023-08-08T04:18:29;17.2;72.9
79187;SHT31;68762;51.980;5.646;2023-08-08T04:20:58;17.2;73.0
79187;SHT31;68762;51.980;5.646;2023-08-08T04:23:26;17.2;72.9
79187;SHT31;68762;51.980;5.646;2023-08-08T04:25:55;17.1;73.1
79187;SHT31;68762;51.980;5.646;2023-08-08T04:28:23;17.1;73.2
79187;SHT31;68762;51.980;5.646;2023-08-08T04:30:52;17.1;73.3
79187;SHT31;68762;51.980;5.646;2023-08-08T04:33:21;17.1;73.5
79187;SHT31;68762;51.980;5.646;2023-08-08T04:35:49;17.1;73.6
79187;SHT31;68762;51.980;5.646;2023-08-08T04:38:18;17.1;73.7
79187;SHT31;68762;51.980;5.646;2023-08-08T04:40:46;17.1;73.8
79187;SHT31;68762;51.980;5.646;2023-08-08T04:43:15;17.1;73.8
79187;SHT31;68762;51.980;5.646;2023-08-08T04:45:43;17.1;74.0
79187;SHT31;68762;51.980;5.646;2023-08-08T04:48:12;17.1;74.0
79187;SHT31;68762;51.980;5.646;2023-08-08T04:50:40;17.1;74.1
79187;SHT31;68762;51.980;5.646;2023-08-08T04:53:11;17.1;74.0
79187;SHT31;68762;51.980;5.646;2023-08-08T04:55:39;17.1;74.0
79187;SHT31;68762;51.980;5.646;2023-08-08T04:58:09;17.1;73.9
79187;SHT31;68762;51.980;5.646;2023-08-08T05:00:38;17.1;73.8
79187;SHT31;68762;51.980;5.646;2023-08-08T05:03:06;17.1;73.7
79187;SHT31;68762;51.980;5.646;2023-08-08T05:05:35;17.1;73.6
79187;SHT31;68762;51.980;5.646;2023-08-08T05:08:04;17.1;73.6
79187;SHT31;68762;51.980;5.646;2023-08-08T05:10:32;17.1;73.6
79187;SHT31;68762;51.980;5.646;2023-08-08T05:13:01;17.1;73.7
79187;SHT31;68762;51.980;5.646;2023-08-08T05:15:30;17.1;73.8
79187;SHT31;68762;51.980;5.646;2023-08-08T05:17:58;17.1;74.0
79187;SHT31;68762;51.980;5.646;2023-08-08T05:20:27;17.1;74.1
79187;SHT31;68762;51.980;5.646;2023-08-08T05:22:56;17.1;74.1
79187;SHT31;68762;51.980;5.646;2023-08-08T05:25:24;17.1;74.2
79187;SHT31;68762;51.980;5.646;2023-08-08T05:27:53;17.1;74.1
79187;SHT31;68762;51.980;5.646;2023-08-08T05:30:22;17.1;74.2
79187;SHT31;68762;51.980;5.646;2023-08-08T05:32:50;17.2;74.2
79187;SHT31;68762;51.980;5.646;2023-08-08T05:35:19;17.2;74.0
79187;SHT31;68762;51.980;5.646;2023-08-08T05:37:48;17.2;73.7
79187;SHT31;68762;51.980;5.646;2023-08-08T05:40:16;17.2;73.7
79187;SHT31;68762;51.980;5.646;2023-08-08T05:42:45;17.2;73.3
79187;SHT31;68762;51.980;5.646;2023-08-08T05:45:14;17.3;73.5
79187;SHT31;68762;51.980;5.646;2023-08-08T05:47:42;17.3;73.2
79187;SHT31;68762;51.980;5.646;2023-08-08T05:50:11;17.3;73.0
79187;SHT31;68762;51.980;5.646;2023-08-08T05:52:39;17.3;72.9
79187;SHT31;68762;51.980;5.646;2023-08-08T05:55:08;17.3;72.5
79187;SHT31;68762;51.980;5.646;2023-08-08T05:57:37;17.4;72.2
79187;SHT31;68762;51.980;5.646;2023-08-08T06:00:06;17.4;72.0
79187;SHT31;68762;51.980;5.646;2023-08-08T06:02:38;17.4;71.1
79187;SHT31;68762;51.980;5.646;2023-08-08T06:05:07;17.4;70.7
79187;SHT31;68762;51.980;5.646;2023-08-08T06:07:36;17.5;70.9
79187;SHT31;68762;51.980;5.646;2023-08-08T06:10:05;17.5;70.8
79187;SHT31;68762;51.980;5.646;2023-08-08T06:12:34;17.5;69.2
79187;SHT31;68762;51.980;5.646;2023-08-08T06:15:03;17.6;69.2
79187;SHT31;68762;51.980;5.646;2023-08-08T06:17:32;17.6;69.1
79187;SHT31;68762;51.980;5.646;2023-08-08T06:20:00;17.6;68.7
79187;SHT31;68762;51.980;5.646;2023-08-08T06:22:29;17.7;68.6
79187;SHT31;68762;51.980;5.646;2023-08-08T06:24:57;17.7;67.5
79187;SHT31;68762;51.980;5.646;2023-08-08T06:27:26;17.8;67.2
79187;SHT31;68762;51.980;5.646;2023-08-08T06:29:55;17.8;67.6
79187;SHT31;68762;51.980;5.646;2023-08-08T06:32:27;17.8;67.3
79187;SHT31;68762;51.980;5.646;2023-08-08T06:34:55;17.9;67.1
79187;SHT31;68762;51.980;5.646;2023-08-08T06:37:26;17.9;65.9
79187;SHT31;68762;51.980;5.646;2023-08-08T06:39:54;18.0;65.7
79187;SHT31;68762;51.980;5.646;2023-08-08T06:42:23;18.0;66.0
79187;SHT31;68762;51.980;5.646;2023-08-08T06:44:52;18.0;65.1
79187;SHT31;68762;51.980;5.646;2023-08-08T06:47:20;18.1;65.2
79187;SHT31;68762;51.980;5.646;2023-08-08T06:49:50;18.1;64.9
79187;SHT31;68762;51.980;5.646;2023-08-08T06:52:18;18.2;64.4
79187;SHT31;68762;51.980;5.646;2023-08-08T06:54:48;18.2;63.8
79187;SHT31;68762;51.980;5.646;2023-08-08T06:57:16;18.2;63.3
79187;SHT31;68762;51.980;5.646;2023-08-08T06:59:45;18.3;64.0
79187;SHT31;68762;51.980;5.646;2023-08-08T07:02:19;18.3;62.9
79187;SHT31;68762;51.980;5.646;2023-08-08T07:04:48;18.4;63.9
79187;SHT31;68762;51.980;5.646;2023-08-08T07:07:18;18.4;63.4
79187;SHT31;68762;51.980;5.646;2023-08-08T07:09:47;18.5;63.1
79187;SHT31;68762;51.980;5.646;2023-08-08T07:12:17;18.5;63.0
79187;SHT31;68762;51.980;5.646;2023-08-08T07:14:47;18.6;61.0
79187;SHT31;68762;51.980;5.646;2023-08-08T07:17:16;18.6;61.9
79187;SHT31;68762;51.980;5.646;2023-08-08T07:19:44;18.7;62.6
79187;SHT31;68762;51.980;5.646;2023-08-08T07:22:14;18.8;60.5
79187;SHT31;68762;51.980;5.646;2023-08-08T07:24:42;18.8;59.4
79187;SHT31;68762;51.980;5.646;2023-08-08T07:27:11;18.9;60.0
79187;SHT31;68762;51.980;5.646;2023-08-08T07:29:39;18.9;59.2
79187;SHT31;68762;51.980;5.646;2023-08-08T07:32:11;19.0;58.1
79187;SHT31;68762;51.980;5.646;2023-08-08T07:34:39;19.0;58.5
79187;SHT31;68762;51.980;5.646;2023-08-08T07:37:08;19.1;57.5
79187;SHT31;68762;51.980;5.646;2023-08-08T07:39:39;19.1;59.0
79187;SHT31;68762;51.980;5.646;2023-08-08T07:42:08;19.1;57.2
79187;SHT31;68762;51.980;5.646;2023-08-08T07:44:36;19.2;56.2
79187;SHT31;68762;51.980;5.646;2023-08-08T07:47:05;19.2;56.7
79187;SHT31;68762;51.980;5.646;2023-08-08T07:49:34;19.2;56.3
79187;SHT31;68762;51.980;5.646;2023-08-08T07:52:02;19.3;55.4
79187;SHT31;68762;51.980;5.646;2023-08-08T07:54:31;19.3;55.2
79187;SHT31;68762;51.980;5.646;2023-08-08T07:56:59;19.4;55.5
79187;SHT31;68762;51.980;5.646;2023-08-08T07:59:28;19.4;56.9
79187;SHT31;68762;51.980;5.646;2023-08-08T08:01:57;19.4;55.5
79187;SHT31;68762;51.980;5.646;2023-08-08T08:04:25;19.5;55.6
79187;SHT31;68762;51.980;5.646;2023-08-08T08:06:54;19.5;55.0
79187;SHT31;68762;51.980;5.646;2023-08-08T08:09:22;19.6;54.9
79187;SHT31;68762;51.980;5.646;2023-08-08T08:11:51;19.6;54.2
79187;SHT31;68762;51.980;5.646;2023-08-08T08:14:20;19.6;54.1
79187;SHT31;68762;51.980;5.646;2023-08-08T08:16:49;19.7;53.3
79187;SHT31;68762;51.980;5.646;2023-08-08T08:19:19;19.7;54.2
79187;SHT31;68762;51.980;5.646;2023-08-08T08:21:48;19.7;54.1
79187;SHT31;68762;51.980;5.646;2023-08-08T08:24:16;19.7;53.6
79187;SHT31;68762;51.980;5.646;2023-08-08T08:26:45;19.8;53.5
79187;SHT31;68762;51.980;5.646;2023-08-08T08:29:14;19.8;53.5
79187;SHT31;68762;51.980;5.646;2023-08-08T08:31:42;19.8;53.8
79187;SHT31;68762;51.980;5.646;2023-08-08T08:34:11;19.8;54.5
79187;SHT31;68762;51.980;5.646;2023-08-08T08:36:40;19.9;53.7
79187;SHT31;68762;51.980;5.646;2023-08-08T08:39:08;19.9;53.5
79187;SHT31;68762;51.980;5.646;2023-08-08T08:41:37;19.9;52.8
79187;SHT31;68762;51.980;5.646;2023-08-08T08:44:05;19.9;52.2
79187;SHT31;68762;51.980;5.646;2023-08-08T08:46:35;19.9;51.5
79187;SHT31;68762;51.980;5.646;2023-08-08T08:49:07;19.9;51.5
79187;SHT31;68762;51.980;5.646;2023-08-08T08:51:37;20.0;53.4
79187;SHT31;68762;51.980;5.646;2023-08-08T08:54:07;20.0;51.0
79187;SHT31;68762;51.980;5.646;2023-08-08T08:56:36;20.0;52.8
79187;SHT31;68762;51.980;5.646;2023-08-08T08:59:05;20.1;52.2
79187;SHT31;68762;51.980;5.646;2023-08-08T09:01:36;20.1;53.0
79187;SHT31;68762;51.980;5.646;2023-08-08T09:04:07;20.2;49.7
79187;SHT31;68762;51.980;5.646;2023-08-08T09:06:37;20.2;51.3
79187;SHT31;68762;51.980;5.646;2023-08-08T09:09:07;20.2;50.4
79187;SHT31;68762;51.980;5.646;2023-08-08T09:11:36;20.3;49.8
79187;SHT31;68762;51.980;5.646;2023-08-08T09:14:16;20.3;49.3
79187;SHT31;68762;51.980;5.646;2023-08-08T09:16:45;20.4;50.6
79187;SHT31;68762;51.980;5.646;2023-08-08T09:19:15;20.4;50.1
79187;SHT31;68762;51.980;5.646;2023-08-08T09:21:44;20.5;49.4
79187;SHT31;68762;51.980;5.646;2023-08-08T09:24:13;20.5;48.4
79187;SHT31;68762;51.980;5.646;2023-08-08T09:26:43;20.5;48.2
79187;SHT31;68762;51.980;5.646;2023-08-08T09:29:14;20.5;47.4
79187;SHT31;68762;51.980;5.646;2023-08-08T09:31:43;20.5;47.7
79187;SHT31;68762;51.980;5.646;2023-08-08T09:34:14;20.6;49.3
79187;SHT31;68762;51.980;5.646;2023-08-08T09:36:45;20.6;48.3
79187;SHT31;68762;51.980;5.646;2023-08-08T09:39:16;20.6;48.5
79187;SHT31;68762;51.980;5.646;2023-08-08T09:41:45;20.7;46.8
79187;SHT31;68762;51.980;5.646;2023-08-08T09:44:17;20.7;47.0
79187;SHT31;68762;51.980;5.646;2023-08-08T09:46:46;20.8;47.2
79187;SHT31;68762;51.980;5.646;2023-08-08T09:49:15;20.8;47.7
79187;SHT31;68762;51.980;5.646;2023-08-08T09:51:44;20.8;47.3
79187;SHT31;68762;51.980;5.646;2023-08-08T09:54:16;20.9;49.4
79187;SHT31;68762;51.980;5.646;2023-08-08T09:56:45;20.9;48.7
79187;SHT31;68762;51.980;5.646;2023-08-08T09:59:16;21.0;46.7
79187;SHT31;68762;51.980;5.646;2023-08-08T10:01:46;21.0;47.2
79187;SHT31;68762;51.980;5.646;2023-08-08T10:04:18;21.0;45.7
79187;SHT31;68762;51.980;5.646;2023-08-08T10:06:46;21.0;46.4
79187;SHT31;68762;51.980;5.646;2023-08-08T10:09:15;21.0;47.7
79187;SHT31;68762;51.980;5.646;2023-08-08T10:11:46;21.1;47.5
79187;SHT31;68762;51.980;5.646;2023-08-08T10:14:15;21.1;47.3
79187;SHT31;68762;51.980;5.646;2023-08-08T10:16:44;21.1;46.8
79187;SHT31;68762;51.980;5.646;2023-08-08T10:19:12;21.1;46.6
79187;SHT31;68762;51.980;5.646;2023-08-08T10:21:44;21.1;46.9
79187;SHT31;68762;51.980;5.646;2023-08-08T10:24:13;21.1;47.7
79187;SHT31;68762;51.980;5.646;2023-08-08T10:26:56;21.1;47.0
79187;SHT31;68762;51.980;5.646;2023-08-08T10:29:28;21.2;46.4
79187;SHT31;68762;51.980;5.646;2023-08-08T10:32:01;21.2;46.0
79187;SHT31;68762;51.980;5.646;2023-08-08T10:34:40;21.1;47.2
79187;SHT31;68762;51.980;5.646;2023-08-08T10:37:12;21.2;46.2
79187;SHT31;68762;51.980;5.646;2023-08-08T10:39:51;21.2;46.9
79187;SHT31;68762;51.980;5.646;2023-08-08T10:42:23;21.2;47.6
79187;SHT31;68762;51.980;5.646;2023-08-08T10:44:55;21.2;46.3
79187;SHT31;68762;51.980;5.646;2023-08-08T10:47:25;21.2;48.1
79187;SHT31;68762;51.980;5.646;2023-08-08T10:50:06;21.2;48.4
79187;SHT31;68762;51.980;5.646;2023-08-08T10:52:53;21.2;47.4
79187;SHT31;68762;51.980;5.646;2023-08-08T10:55:24;21.2;48.1
79187;SHT31;68762;51.980;5.646;2023-08-08T10:57:58;21.2;50.6
79187;SHT31;68762;51.980;5.646;2023-08-08T11:00:31;21.2;50.0
79187;SHT31;68762;51.980;5.646;2023-08-08T11:03:02;21.2;47.1
79187;SHT31;68762;51.980;5.646;2023-08-08T11:05:33;21.3;48.1
79187;SHT31;68762;51.980;5.646;2023-08-08T11:08:04;21.4;48.3
79187;SHT31;68762;51.980;5.646;2023-08-08T11:10:36;21.4;47.0
79187;SHT31;68762;51.980;5.646;2023-08-08T11:13:07;21.5;45.9
79187;SHT31;68762;51.980;5.646;2023-08-08T11:15:36;21.5;45.4
79187;SHT31;68762;51.980;5.646;2023-08-08T11:18:05;21.5;44.3
79187;SHT31;68762;51.980;5.646;2023-08-08T11:20:36;21.5;44.0
79187;SHT31;68762;51.980;5.646;2023-08-08T11:23:06;21.5;45.9
79187;SHT31;68762;51.980;5.646;2023-08-08T11:25:40;21.5;46.9
79187;SHT31;68762;51.980;5.646;2023-08-08T11:28:10;21.5;46.7
79187;SHT31;68762;51.980;5.646;2023-08-08T11:30:40;21.5;48.0
79187;SHT31;68762;51.980;5.646;2023-08-08T11:33:12;21.5;48.1
79187;SHT31;68762;51.980;5.646;2023-08-08T11:35:43;21.5;47.5
79187;SHT31;68762;51.980;5.646;2023-08-08T11:38:14;21.5;47.9
79187;SHT31;68762;51.980;5.646;2023-08-08T11:40:45;21.5;47.6
79187;SHT31;68762;51.980;5.646;2023-08-08T11:43:14;21.5;48.0
79187;SHT31;68762;51.980;5.646;2023-08-08T11:45:44;21.5;47.4
79187;SHT31;68762;51.980;5.646;2023-08-08T11:48:12;21.5;46.5
79187;SHT31;68762;51.980;5.646;2023-08-08T11:50:43;21.6;45.8
79187;SHT31;68762;51.980;5.646;2023-08-08T11:53:13;21.6;48.3
79187;SHT31;68762;51.980;5.646;2023-08-08T11:55:41;21.6;47.9
79187;SHT31;68762;51.980;5.646;2023-08-08T11:58:12;21.6;47.5
79187;SHT31;68762;51.980;5.646;2023-08-08T12:00:42;21.6;46.0
79187;SHT31;68762;51.980;5.646;2023-08-08T12:03:12;21.6;44.8
79187;SHT31;68762;51.980;5.646;2023-08-08T12:05:45;21.7;45.2
79187;SHT31;68762;51.980;5.646;2023-08-08T12:08:17;21.7;46.6
79187;SHT31;68762;51.980;5.646;2023-08-08T12:10:49;21.7;47.2
79187;SHT31;68762;51.980;5.646;2023-08-08T12:13:22;21.7;47.7
79187;SHT31;68762;51.980;5.646;2023-08-08T12:15:53;21.7;46.8
79187;SHT31;68762;51.980;5.646;2023-08-08T12:18:24;21.7;46.8
79187;SHT31;68762;51.980;5.646;2023-08-08T12:20:53;21.7;45.6
79187;SHT31;68762;51.980;5.646;2023-08-08T12:23:22;21.7;46.4
79187;SHT31;68762;51.980;5.646;2023-08-08T12:25:51;21.7;45.0
79187;SHT31;68762;51.980;5.646;2023-08-08T12:28:19;21.7;45.8
79187;SHT31;68762;51.980;5.646;2023-08-08T12:30:48;21.7;47.5
79187;SHT31;68762;51.980;5.646;2023-08-08T12:33:17;21.7;46.1
79187;SHT31;68762;51.980;5.646;2023-08-08T12:35:48;21.7;46.5
79187;SHT31;68762;51.980;5.646;2023-08-08T12:38:17;21.7;46.9
79187;SHT31;68762;51.980;5.646;2023-08-08T12:40:46;21.8;47.0
79187;SHT31;68762;51.980;5.646;2023-08-08T12:43:14;21.8;46.0
79187;SHT31;68762;51.980;5.646;2023-08-08T12:45:44;21.8;46.3
79187;SHT31;68762;51.980;5.646;2023-08-08T12:48:14;21.8;46.1
79187;SHT31;68762;51.980;5.646;2023-08-08T12:50:42;21.9;47.3
79187;SHT31;68762;51.980;5.646;2023-08-08T12:53:11;21.9;47.2
79187;SHT31;68762;51.980;5.646;2023-08-08T12:55:40;21.9;48.1
79187;SHT31;68762;51.980;5.646;2023-08-08T12:58:10;22.0;46.5
79187;SHT31;68762;51.980;5.646;2023-08-08T13:00:39;22.0;45.7
79187;SHT31;68762;51.980;5.646;2023-08-08T13:03:07;22.0;45.8
79187;SHT31;68762;51.980;5.646;2023-08-08T13:05:38;22.0;46.6
79187;SHT31;68762;51.980;5.646;2023-08-08T13:08:07;22.0;46.1
79187;SHT31;68762;51.980;5.646;2023-08-08T13:10:35;21.9;46.6
79187;SHT31;68762;51.980;5.646;2023-08-08T13:13:04;21.9;46.1
79187;SHT31;68762;51.980;5.646;2023-08-08T13:15:35;21.9;45.2
79187;SHT31;68762;51.980;5.646;2023-08-08T13:18:04;21.9;45.7
79187;SHT31;68762;51.980;5.646;2023-08-08T13:20:35;21.9;46.6
79187;SHT31;68762;51.980;5.646;2023-08-08T13:23:05;21.9;45.6
79187;SHT31;68762;51.980;5.646;2023-08-08T13:25:33;21.8;45.9
79187;SHT31;68762;51.980;5.646;2023-08-08T13:28:03;21.8;46.1
79187;SHT31;68762;51.980;5.646;2023-08-08T13:30:31;21.8;45.7
79187;SHT31;68762;51.980;5.646;2023-08-08T13:33:02;21.8;46.9
79187;SHT31;68762;51.980;5.646;2023-08-08T13:35:31;21.8;48.1
79187;SHT31;68762;51.980;5.646;2023-08-08T13:38:02;21.8;48.7
79187;SHT31;68762;51.980;5.646;2023-08-08T13:40:31;21.8;48.5
79187;SHT31;68762;51.980;5.646;2023-08-08T13:42:59;21.8;47.0
79187;SHT31;68762;51.980;5.646;2023-08-08T13:45:30;21.8;47.1
79187;SHT31;68762;51.980;5.646;2023-08-08T13:47:58;21.8;47.9
79187;SHT31;68762;51.980;5.646;2023-08-08T13:50:27;21.8;47.7
79187;SHT31;68762;51.980;5.646;2023-08-08T13:52:56;21.8;46.9
79187;SHT31;68762;51.980;5.646;2023-08-08T13:55:27;21.8;47.9
79187;SHT31;68762;51.980;5.646;2023-08-08T13:57:55;21.7;48.9
79187;SHT31;68762;51.980;5.646;2023-08-08T14:00:24;21.7;49.2
79187;SHT31;68762;51.980;5.646;2023-08-08T14:02:53;21.7;49.4
79187;SHT31;68762;51.980;5.646;2023-08-08T14:05:21;21.7;48.2
79187;SHT31;68762;51.980;5.646;2023-08-08T14:07:50;21.7;48.0
79187;SHT31;68762;51.980;5.646;2023-08-08T14:10:19;21.7;48.6
79187;SHT31;68762;51.980;5.646;2023-08-08T14:12:47;21.7;49.0
79187;SHT31;68762;51.980;5.646;2023-08-08T14:15:16;21.7;49.1
79187;SHT31;68762;51.980;5.646;2023-08-08T14:17:45;21.7;48.9
79187;SHT31;68762;51.980;5.646;2023-08-08T14:20:13;21.7;49.0
79187;SHT31;68762;51.980;5.646;2023-08-08T14:22:44;21.7;48.2
79187;SHT31;68762;51.980;5.646;2023-08-08T14:25:14;21.7;47.6
79187;SHT31;68762;51.980;5.646;2023-08-08T14:27:44;21.6;48.8
79187;SHT31;68762;51.980;5.646;2023-08-08T14:30:15;21.6;49.0
79187;SHT31;68762;51.980;5.646;2023-08-08T14:32:44;21.6;47.5
79187;SHT31;68762;51.980;5.646;2023-08-08T14:35:12;21.7;47.4
79187;SHT31;68762;51.980;5.646;2023-08-08T14:37:41;21.7;47.5
79187;SHT31;68762;51.980;5.646;2023-08-08T14:40:10;21.7;48.0
79187;SHT31;68762;51.980;5.646;2023-08-08T14:42:39;21.7;47.1
79187;SHT31;68762;51.980;5.646;2023-08-08T14:45:08;21.7;47.2
79187;SHT31;68762;51.980;5.646;2023-08-08T14:47:37;21.7;47.8
79187;SHT31;68762;51.980;5.646;2023-08-08T14:50:06;21.7;46.3
79187;SHT31;68762;51.980;5.646;2023-08-08T14:52:37;21.7;46.9
79187;SHT31;68762;51.980;5.646;2023-08-08T14:55:06;21.7;47.5
79187;SHT31;68762;51.980;5.646;2023-08-08T14:57:35;21.7;47.1
79187;SHT31;68762;51.980;5.646;2023-08-08T15:00:04;21.7;46.6
79187;SHT31;68762;51.980;5.646;2023-08-08T15:02:35;21.7;47.5
79187;SHT31;68762;51.980;5.646;2023-08-08T15:05:04;21.7;47.0
79187;SHT31;68762;51.980;5.646;2023-08-08T15:07:33;21.7;47.0
79187;SHT31;68762;51.980;5.646;2023-08-08T15:10:02;21.7;47.0
79187;SHT31;68762;51.980;5.646;2023-08-08T15:12:31;21.7;47.2
79187;SHT31;68762;51.980;5.646;2023-08-08T15:15:00;21.7;47.5
79187;SHT31;68762;51.980;5.646;2023-08-08T15:17:30;21.7;47.0
79187;SHT31;68762;51.980;5.646;2023-08-08T15:20:01;21.8;48.4
79187;SHT31;68762;51.980;5.646;2023-08-08T15:22:30;21.8;46.5
79187;SHT31;68762;51.980;5.646;2023-08-08T15:24:59;21.8;47.5
79187;SHT31;68762;51.980;5.646;2023-08-08T15:27:27;21.9;47.8
79187;SHT31;68762;51.980;5.646;2023-08-08T15:29:56;21.9;48.2
79187;SHT31;68762;51.980;5.646;2023-08-08T15:32:25;21.9;47.5
79187;SHT31;68762;51.980;5.646;2023-08-08T15:34:53;22.0;46.7
79187;SHT31;68762;51.980;5.646;2023-08-08T15:37:22;22.0;46.7
79187;SHT31;68762;51.980;5.646;2023-08-08T15:39:51;22.0;46.5
79187;SHT31;68762;51.980;5.646;2023-08-08T15:42:20;22.0;46.5
79187;SHT31;68762;51.980;5.646;2023-08-08T15:44:48;21.9;46.2
79187;SHT31;68762;51.980;5.646;2023-08-08T15:47:17;21.9;47.3
79187;SHT31;68762;51.980;5.646;2023-08-08T15:49:45;21.9;47.6
79187;SHT31;68762;51.980;5.646;2023-08-08T15:52:14;21.9;46.6
79187;SHT31;68762;51.980;5.646;2023-08-08T15:54:42;21.9;47.1
79187;SHT31;68762;51.980;5.646;2023-08-08T15:57:11;21.9;47.2
79187;SHT31;68762;51.980;5.646;2023-08-08T15:59:39;21.9;46.7
79187;SHT31;68762;51.980;5.646;2023-08-08T16:02:09;21.9;47.1
79187;SHT31;68762;51.980;5.646;2023-08-08T16:04:38;21.8;47.6
79187;SHT31;68762;51.980;5.646;2023-08-08T16:07:07;21.8;49.1
79187;SHT31;68762;51.980;5.646;2023-08-08T16:09:36;21.9;49.4
79187;SHT31;68762;51.980;5.646;2023-08-08T16:12:04;21.9;49.0
79187;SHT31;68762;51.980;5.646;2023-08-08T16:14:33;21.9;49.4
79187;SHT31;68762;51.980;5.646;2023-08-08T16:17:02;21.9;48.3